sensor_id;sensor_type;location;lat;lon;timestamp;P1;durP1;ratioP1;P2;durP2;ratioP2
60851;SDS011;48553;50.766;2.900;2023-07-20T00:01:19;9.88;;;3.13;;
60851;SDS011;48553;50.766;2.900;2023-07-20T00:04:19;10.48;;;3.00;;
60851;SDS011;48553;50.766;2.900;2023-07-20T00:07:20;9.50;;;2.85;;
60851;SDS011;48553;50.766;2.900;2023-07-20T00:10:20;10.82;;;3.10;;
60851;SDS011;48553;50.766;2.900;2023-07-20T00:13:20;7.78;;;3.03;;
60851;SDS011;48553;50.766;2.900;2023-07-20T00:16:21;10.90;;;3.20;;
60851;SDS011;48553;50.766;2.900;2023-07-20T00:19:22;9.05;;;3.17;;
60851;SDS011;48553;50.766;2.900;2023-07-20T00:22:26;7.47;;;2.90;;
60851;SDS011;48553;50.766;2.900;2023-07-20T00:25:27;10.70;;;3.20;;
60851;SDS011;48553;50.766;2.900;2023-07-20T00:28:27;13.40;;;3.05;;
60851;SDS011;48553;50.766;2.900;2023-07-20T00:31:27;11.68;;;3.08;;
60851;SDS011;48553;50.766;2.900;2023-07-20T00:34:29;9.50;;;3.45;;
60851;SDS011;48553;50.766;2.900;2023-07-20T00:37:30;9.57;;;3.20;;
60851;SDS011;48553;50.766;2.900;2023-07-20T00:40:37;9.05;;;3.17;;
60851;SDS011;48553;50.766;2.900;2023-07-20T00:43:41;10.18;;;3.33;;
60851;SDS011;48553;50.766;2.900;2023-07-20T00:46:41;9.80;;;3.20;;
60851;SDS011;48553;50.766;2.900;2023-07-20T00:49:42;13.10;;;3.50;;
60851;SDS011;48553;50.766;2.900;2023-07-20T00:52:43;16.23;;;3.78;;
60851;SDS011;48553;50.766;2.900;2023-07-20T00:55:44;13.02;;;3.92;;
60851;SDS011;48553;50.766;2.900;2023-07-20T00:58:44;11.68;;;3.50;;
60851;SDS011;48553;50.766;2.900;2023-07-20T01:01:45;12.63;;;4.03;;
60851;SDS011;48553;50.766;2.900;2023-07-20T01:04:45;10.23;;;3.58;;
60851;SDS011;48553;50.766;2.900;2023-07-20T01:07:58;12.00;;;3.40;;
60851;SDS011;48553;50.766;2.900;2023-07-20T01:11:13;11.13;;;3.50;;
60851;SDS011;48553;50.766;2.900;2023-07-20T01:14:18;14.05;;;3.72;;
60851;SDS011;48553;50.766;2.900;2023-07-20T01:17:20;8.80;;;3.45;;
60851;SDS011;48553;50.766;2.900;2023-07-20T01:20:20;11.88;;;3.70;;
60851;SDS011;48553;50.766;2.900;2023-07-20T01:30:14;10.07;;;3.90;;
60851;SDS011;48553;50.766;2.900;2023-07-20T01:33:26;10.32;;;3.33;;
60851;SDS011;48553;50.766;2.900;2023-07-20T01:36:30;11.38;;;3.63;;
60851;SDS011;48553;50.766;2.900;2023-07-20T01:39:33;10.35;;;3.78;;
60851;SDS011;48553;50.766;2.900;2023-07-20T01:42:33;8.60;;;3.78;;
60851;SDS011;48553;50.766;2.900;2023-07-20T01:45:34;11.30;;;3.70;;
60851;SDS011;48553;50.766;2.900;2023-07-20T01:48:34;11.52;;;3.65;;
60851;SDS011;48553;50.766;2.900;2023-07-20T01:51:35;12.30;;;3.95;;
60851;SDS011;48553;50.766;2.900;2023-07-20T01:54:35;10.10;;;4.00;;
60851;SDS011;48553;50.766;2.900;2023-07-20T01:57:36;9.07;;;3.60;;
60851;SDS011;48553;50.766;2.900;2023-07-20T02:00:37;11.98;;;3.85;;
60851;SDS011;48553;50.766;2.900;2023-07-20T02:03:39;12.65;;;3.72;;
60851;SDS011;48553;50.766;2.900;2023-07-20T02:06:40;10.00;;;3.50;;
60851;SDS011;48553;50.766;2.900;2023-07-20T02:09:40;11.70;;;3.92;;
60851;SDS011;48553;50.766;2.900;2023-07-20T02:12:41;11.25;;;3.80;;
60851;SDS011;48553;50.766;2.900;2023-07-20T02:15:41;12.15;;;4.30;;
60851;SDS011;48553;50.766;2.900;2023-07-20T02:18:42;10.95;;;3.83;;
60851;SDS011;48553;50.766;2.900;2023-07-20T02:21:43;10.52;;;4.30;;
60851;SDS011;48553;50.766;2.900;2023-07-20T02:24:43;12.15;;;4.05;;
60851;SDS011;48553;50.766;2.900;2023-07-20T02:27:43;13.43;;;3.72;;
60851;SDS011;48553;50.766;2.900;2023-07-20T02:30:44;11.02;;;3.67;;
60851;SDS011;48553;50.766;2.900;2023-07-20T02:33:44;12.30;;;3.85;;
60851;SDS011;48553;50.766;2.900;2023-07-20T02:36:45;12.88;;;4.47;;
60851;SDS011;48553;50.766;2.900;2023-07-20T02:39:46;9.93;;;3.85;;
60851;SDS011;48553;50.766;2.900;2023-07-20T02:42:46;10.23;;;3.88;;
60851;SDS011;48553;50.766;2.900;2023-07-20T02:45:47;11.82;;;4.10;;
60851;SDS011;48553;50.766;2.900;2023-07-20T02:48:50;12.23;;;3.95;;
60851;SDS011;48553;50.766;2.900;2023-07-20T02:51:50;13.27;;;4.05;;
60851;SDS011;48553;50.766;2.900;2023-07-20T02:54:50;9.95;;;4.10;;
60851;SDS011;48553;50.766;2.900;2023-07-20T02:57:51;8.75;;;3.83;;
60851;SDS011;48553;50.766;2.900;2023-07-20T03:00:51;10.50;;;4.05;;
60851;SDS011;48553;50.766;2.900;2023-07-20T03:03:52;12.52;;;4.05;;
60851;SDS011;48553;50.766;2.900;2023-07-20T03:06:52;10.13;;;3.85;;
60851;SDS011;48553;50.766;2.900;2023-07-20T03:09:53;8.90;;;3.72;;
60851;SDS011;48553;50.766;2.900;2023-07-20T03:12:54;12.23;;;3.75;;
60851;SDS011;48553;50.766;2.900;2023-07-20T03:15:55;10.05;;;3.53;;
60851;SDS011;48553;50.766;2.900;2023-07-20T03:18:55;8.68;;;3.78;;
60851;SDS011;48553;50.766;2.900;2023-07-20T03:21:56;9.55;;;3.40;;
60851;SDS011;48553;50.766;2.900;2023-07-20T03:24:56;10.02;;;3.72;;
60851;SDS011;48553;50.766;2.900;2023-07-20T03:27:57;7.70;;;3.65;;
60851;SDS011;48553;50.766;2.900;2023-07-20T03:30:57;11.82;;;3.85;;
60851;SDS011;48553;50.766;2.900;2023-07-20T03:33:58;7.93;;;3.70;;
60851;SDS011;48553;50.766;2.900;2023-07-20T03:36:59;7.68;;;3.22;;
60851;SDS011;48553;50.766;2.900;2023-07-20T03:39:59;7.00;;;3.40;;
60851;SDS011;48553;50.766;2.900;2023-07-20T03:42:59;7.03;;;3.30;;
60851;SDS011;48553;50.766;2.900;2023-07-20T03:46:00;7.32;;;3.80;;
60851;SDS011;48553;50.766;2.900;2023-07-20T03:49:00;8.68;;;3.50;;
60851;SDS011;48553;50.766;2.900;2023-07-20T03:52:01;7.93;;;3.58;;
60851;SDS011;48553;50.766;2.900;2023-07-20T03:55:03;7.90;;;3.67;;
60851;SDS011;48553;50.766;2.900;2023-07-20T03:58:03;10.35;;;3.85;;
60851;SDS011;48553;50.766;2.900;2023-07-20T04:01:04;7.47;;;3.67;;
60851;SDS011;48553;50.766;2.900;2023-07-20T04:04:06;6.60;;;3.58;;
60851;SDS011;48553;50.766;2.900;2023-07-20T04:07:07;8.30;;;3.45;;
60851;SDS011;48553;50.766;2.900;2023-07-20T04:10:08;8.77;;;3.67;;
60851;SDS011;48553;50.766;2.900;2023-07-20T04:13:09;7.47;;;3.83;;
60851;SDS011;48553;50.766;2.900;2023-07-20T04:16:09;6.47;;;3.60;;
60851;SDS011;48553;50.766;2.900;2023-07-20T04:19:09;8.70;;;3.47;;
60851;SDS011;48553;50.766;2.900;2023-07-20T04:22:10;7.30;;;3.75;;
60851;SDS011;48553;50.766;2.900;2023-07-20T04:25:10;7.93;;;3.60;;
60851;SDS011;48553;50.766;2.900;2023-07-20T04:28:11;7.47;;;3.40;;
60851;SDS011;48553;50.766;2.900;2023-07-20T04:31:14;9.75;;;4.00;;
60851;SDS011;48553;50.766;2.900;2023-07-20T04:34:15;6.82;;;3.33;;
60851;SDS011;48553;50.766;2.900;2023-07-20T04:37:16;8.80;;;3.60;;
60851;SDS011;48553;50.766;2.900;2023-07-20T04:40:16;10.57;;;3.72;;
60851;SDS011;48553;50.766;2.900;2023-07-20T04:43:17;8.95;;;3.67;;
60851;SDS011;48553;50.766;2.900;2023-07-20T04:46:19;9.25;;;4.28;;
60851;SDS011;48553;50.766;2.900;2023-07-20T04:49:21;10.00;;;4.43;;
60851;SDS011;48553;50.766;2.900;2023-07-20T04:52:21;10.57;;;4.35;;
60851;SDS011;48553;50.766;2.900;2023-07-20T04:55:23;11.20;;;4.43;;
60851;SDS011;48553;50.766;2.900;2023-07-20T04:58:23;12.95;;;4.90;;
60851;SDS011;48553;50.766;2.900;2023-07-20T05:01:24;9.90;;;4.65;;
60851;SDS011;48553;50.766;2.900;2023-07-20T05:04:26;9.40;;;4.22;;
60851;SDS011;48553;50.766;2.900;2023-07-20T05:07:27;10.77;;;4.85;;
60851;SDS011;48553;50.766;2.900;2023-07-20T05:10:27;10.43;;;4.35;;
60851;SDS011;48553;50.766;2.900;2023-07-20T05:13:27;9.75;;;4.38;;
60851;SDS011;48553;50.766;2.900;2023-07-20T05:16:28;10.25;;;4.82;;
60851;SDS011;48553;50.766;2.900;2023-07-20T05:19:28;9.90;;;4.40;;
60851;SDS011;48553;50.766;2.900;2023-07-20T05:22:29;11.02;;;4.75;;
60851;SDS011;48553;50.766;2.900;2023-07-20T05:25:29;10.02;;;4.72;;
60851;SDS011;48553;50.766;2.900;2023-07-20T05:28:30;8.60;;;4.63;;
60851;SDS011;48553;50.766;2.900;2023-07-20T05:31:30;9.35;;;4.45;;
60851;SDS011;48553;50.766;2.900;2023-07-20T05:34:31;12.07;;;4.60;;
60851;SDS011;48553;50.766;2.900;2023-07-20T05:37:32;10.57;;;4.72;;
60851;SDS011;48553;50.766;2.900;2023-07-20T05:40:32;9.15;;;4.60;;
60851;SDS011;48553;50.766;2.900;2023-07-20T05:43:32;6.28;;;4.05;;
60851;SDS011;48553;50.766;2.900;2023-07-20T05:46:33;7.97;;;4.18;;
60851;SDS011;48553;50.766;2.900;2023-07-20T05:49:34;6.95;;;3.90;;
60851;SDS011;48553;50.766;2.900;2023-07-20T05:52:36;5.32;;;3.45;;
60851;SDS011;48553;50.766;2.900;2023-07-20T05:55:38;6.57;;;3.70;;
60851;SDS011;48553;50.766;2.900;2023-07-20T05:58:40;6.85;;;3.63;;
60851;SDS011;48553;50.766;2.900;2023-07-20T06:01:40;5.88;;;3.60;;
60851;SDS011;48553;50.766;2.900;2023-07-20T06:04:41;7.18;;;3.30;;
60851;SDS011;48553;50.766;2.900;2023-07-20T06:07:41;6.75;;;3.50;;
60851;SDS011;48553;50.766;2.900;2023-07-20T06:10:41;5.53;;;3.40;;
60851;SDS011;48553;50.766;2.900;2023-07-20T06:13:42;6.80;;;3.53;;
60851;SDS011;48553;50.766;2.900;2023-07-20T06:16:43;5.22;;;3.38;;
60851;SDS011;48553;50.766;2.900;2023-07-20T06:19:44;6.57;;;3.60;;
60851;SDS011;48553;50.766;2.900;2023-07-20T06:22:44;5.57;;;3.38;;
60851;SDS011;48553;50.766;2.900;2023-07-20T06:25:45;6.40;;;3.38;;
60851;SDS011;48553;50.766;2.900;2023-07-20T06:28:46;6.60;;;3.90;;
60851;SDS011;48553;50.766;2.900;2023-07-20T06:31:46;6.85;;;3.60;;
60851;SDS011;48553;50.766;2.900;2023-07-20T06:34:46;6.47;;;4.18;;
60851;SDS011;48553;50.766;2.900;2023-07-20T06:37:47;5.20;;;3.42;;
60851;SDS011;48553;50.766;2.900;2023-07-20T06:40:47;7.45;;;4.30;;
60851;SDS011;48553;50.766;2.900;2023-07-20T06:43:48;6.38;;;4.07;;
60851;SDS011;48553;50.766;2.900;2023-07-20T06:46:48;7.90;;;4.47;;
60851;SDS011;48553;50.766;2.900;2023-07-20T06:49:49;6.82;;;4.07;;
60851;SDS011;48553;50.766;2.900;2023-07-20T06:52:49;7.55;;;4.40;;
60851;SDS011;48553;50.766;2.900;2023-07-20T06:55:50;6.80;;;4.40;;
60851;SDS011;48553;50.766;2.900;2023-07-20T06:58:50;6.57;;;3.95;;
60851;SDS011;48553;50.766;2.900;2023-07-20T07:01:51;6.65;;;4.13;;
60851;SDS011;48553;50.766;2.900;2023-07-20T07:04:51;6.18;;;3.97;;
60851;SDS011;48553;50.766;2.900;2023-07-20T07:07:51;8.32;;;4.68;;
60851;SDS011;48553;50.766;2.900;2023-07-20T07:10:52;8.50;;;4.68;;
60851;SDS011;48553;50.766;2.900;2023-07-20T07:13:53;5.95;;;4.00;;
60851;SDS011;48553;50.766;2.900;2023-07-20T07:16:54;8.23;;;5.47;;
60851;SDS011;48553;50.766;2.900;2023-07-20T07:19:54;10.43;;;5.82;;
60851;SDS011;48553;50.766;2.900;2023-07-20T07:22:56;9.98;;;5.55;;
60851;SDS011;48553;50.766;2.900;2023-07-20T07:25:57;7.55;;;4.78;;
60851;SDS011;48553;50.766;2.900;2023-07-20T07:28:57;8.23;;;5.20;;
60851;SDS011;48553;50.766;2.900;2023-07-20T07:31:58;7.88;;;5.25;;
60851;SDS011;48553;50.766;2.900;2023-07-20T07:34:58;8.23;;;4.95;;
60851;SDS011;48553;50.766;2.900;2023-07-20T07:37:58;7.13;;;4.18;;
60851;SDS011;48553;50.766;2.900;2023-07-20T07:40:59;6.57;;;4.38;;
60851;SDS011;48553;50.766;2.900;2023-07-20T07:44:00;7.57;;;4.38;;
60851;SDS011;48553;50.766;2.900;2023-07-20T07:47:01;5.88;;;4.40;;
60851;SDS011;48553;50.766;2.900;2023-07-20T07:50:01;7.18;;;3.88;;
60851;SDS011;48553;50.766;2.900;2023-07-20T07:53:02;7.40;;;4.40;;
60851;SDS011;48553;50.766;2.900;2023-07-20T07:56:06;6.72;;;3.85;;
60851;SDS011;48553;50.766;2.900;2023-07-20T07:59:07;7.65;;;3.75;;
60851;SDS011;48553;50.766;2.900;2023-07-20T08:02:07;7.20;;;4.03;;
60851;SDS011;48553;50.766;2.900;2023-07-20T08:05:08;7.38;;;4.15;;
60851;SDS011;48553;50.766;2.900;2023-07-20T08:08:08;5.72;;;3.95;;
60851;SDS011;48553;50.766;2.900;2023-07-20T08:11:09;5.65;;;3.40;;
60851;SDS011;48553;50.766;2.900;2023-07-20T08:14:09;5.72;;;3.42;;
60851;SDS011;48553;50.766;2.900;2023-07-20T08:17:10;5.32;;;3.10;;
60851;SDS011;48553;50.766;2.900;2023-07-20T08:20:12;5.57;;;3.50;;
60851;SDS011;48553;50.766;2.900;2023-07-20T08:23:13;7.93;;;3.55;;
60851;SDS011;48553;50.766;2.900;2023-07-20T08:26:13;5.82;;;3.38;;
60851;SDS011;48553;50.766;2.900;2023-07-20T08:29:14;5.10;;;2.92;;
60851;SDS011;48553;50.766;2.900;2023-07-20T08:32:14;4.57;;;3.05;;
60851;SDS011;48553;50.766;2.900;2023-07-20T08:35:15;5.50;;;2.95;;
60851;SDS011;48553;50.766;2.900;2023-07-20T08:38:15;6.03;;;3.38;;
60851;SDS011;48553;50.766;2.900;2023-07-20T08:41:16;4.10;;;2.80;;
60851;SDS011;48553;50.766;2.900;2023-07-20T08:44:17;6.30;;;3.25;;
60851;SDS011;48553;50.766;2.900;2023-07-20T08:47:17;5.70;;;3.80;;
60851;SDS011;48553;50.766;2.900;2023-07-20T08:50:20;6.60;;;3.53;;
60851;SDS011;48553;50.766;2.900;2023-07-20T08:53:22;7.20;;;3.92;;
60851;SDS011;48553;50.766;2.900;2023-07-20T08:56:23;6.75;;;3.67;;
60851;SDS011;48553;50.766;2.900;2023-07-20T08:59:25;6.10;;;3.38;;
60851;SDS011;48553;50.766;2.900;2023-07-20T09:02:28;5.55;;;3.50;;
60851;SDS011;48553;50.766;2.900;2023-07-20T09:05:29;5.22;;;3.38;;
60851;SDS011;48553;50.766;2.900;2023-07-20T09:08:30;7.38;;;3.83;;
60851;SDS011;48553;50.766;2.900;2023-07-20T09:11:30;7.03;;;4.40;;
60851;SDS011;48553;50.766;2.900;2023-07-20T09:14:31;6.20;;;4.13;;
60851;SDS011;48553;50.766;2.900;2023-07-20T09:17:31;6.47;;;4.50;;
60851;SDS011;48553;50.766;2.900;2023-07-20T09:20:32;6.40;;;4.25;;
60851;SDS011;48553;50.766;2.900;2023-07-20T09:23:37;6.85;;;4.38;;
60851;SDS011;48553;50.766;2.900;2023-07-20T09:26:43;7.60;;;4.17;;
60851;SDS011;48553;50.766;2.900;2023-07-20T09:29:50;5.35;;;3.97;;
60851;SDS011;48553;50.766;2.900;2023-07-20T09:32:51;6.53;;;4.00;;
60851;SDS011;48553;50.766;2.900;2023-07-20T09:35:52;6.63;;;3.50;;
60851;SDS011;48553;50.766;2.900;2023-07-20T09:38:52;5.40;;;3.25;;
60851;SDS011;48553;50.766;2.900;2023-07-20T09:41:53;4.53;;;3.20;;
60851;SDS011;48553;50.766;2.900;2023-07-20T09:44:54;6.03;;;3.28;;
60851;SDS011;48553;50.766;2.900;2023-07-20T09:48:02;4.75;;;3.08;;
60851;SDS011;48553;50.766;2.900;2023-07-20T09:51:04;3.70;;;2.80;;
60851;SDS011;48553;50.766;2.900;2023-07-20T09:54:06;4.95;;;3.08;;
60851;SDS011;48553;50.766;2.900;2023-07-20T09:57:07;5.97;;;3.10;;
60851;SDS011;48553;50.766;2.900;2023-07-20T10:00:09;4.20;;;2.60;;
60851;SDS011;48553;50.766;2.900;2023-07-20T10:03:14;4.82;;;2.63;;
60851;SDS011;48553;50.766;2.900;2023-07-20T10:06:20;5.72;;;2.80;;
60851;SDS011;48553;50.766;2.900;2023-07-20T10:09:24;4.78;;;2.88;;
60851;SDS011;48553;50.766;2.900;2023-07-20T10:12:26;4.25;;;2.60;;
60851;SDS011;48553;50.766;2.900;2023-07-20T10:15:36;3.97;;;2.35;;
60851;SDS011;48553;50.766;2.900;2023-07-20T10:21:55;3.33;;;2.28;;
60851;SDS011;48553;50.766;2.900;2023-07-20T10:25:00;3.55;;;2.25;;
60851;SDS011;48553;50.766;2.900;2023-07-20T10:28:01;4.03;;;2.42;;
60851;SDS011;48553;50.766;2.900;2023-07-20T10:31:02;4.95;;;2.50;;
60851;SDS011;48553;50.766;2.900;2023-07-20T10:34:03;4.60;;;2.42;;
60851;SDS011;48553;50.766;2.900;2023-07-20T10:37:05;4.47;;;2.30;;
60851;SDS011;48553;50.766;2.900;2023-07-20T10:43:28;4.60;;;1.90;;
60851;SDS011;48553;50.766;2.900;2023-07-20T10:46:34;3.95;;;2.28;;
60851;SDS011;48553;50.766;2.900;2023-07-20T10:49:59;4.68;;;2.05;;
60851;SDS011;48553;50.766;2.900;2023-07-20T10:53:13;3.35;;;1.73;;
60851;SDS011;48553;50.766;2.900;2023-07-20T10:59:20;5.85;;;2.20;;
60851;SDS011;48553;50.766;2.900;2023-07-20T11:02:48;4.25;;;2.10;;
60851;SDS011;48553;50.766;2.900;2023-07-20T11:05:50;5.30;;;2.08;;
60851;SDS011;48553;50.766;2.900;2023-07-20T11:09:11;3.35;;;1.70;;
60851;SDS011;48553;50.766;2.900;2023-07-20T11:12:17;3.90;;;2.00;;
60851;SDS011;48553;50.766;2.900;2023-07-20T11:15:18;4.38;;;2.00;;
60851;SDS011;48553;50.766;2.900;2023-07-20T11:18:18;4.07;;;1.88;;
60851;SDS011;48553;50.766;2.900;2023-07-20T11:21:19;4.38;;;1.65;;
60851;SDS011;48553;50.766;2.900;2023-07-20T11:24:19;5.75;;;2.00;;
60851;SDS011;48553;50.766;2.900;2023-07-20T11:27:20;4.20;;;2.00;;
60851;SDS011;48553;50.766;2.900;2023-07-20T11:30:22;5.65;;;2.00;;
60851;SDS011;48553;50.766;2.900;2023-07-20T11:33:22;4.03;;;1.83;;
60851;SDS011;48553;50.766;2.900;2023-07-20T11:36:23;5.97;;;2.47;;
60851;SDS011;48553;50.766;2.900;2023-07-20T11:39:24;6.43;;;2.35;;
60851;SDS011;48553;50.766;2.900;2023-07-20T11:42:25;7.50;;;2.15;;
60851;SDS011;48553;50.766;2.900;2023-07-20T11:45:25;5.13;;;2.30;;
60851;SDS011;48553;50.766;2.900;2023-07-20T11:48:27;5.38;;;2.17;;
60851;SDS011;48553;50.766;2.900;2023-07-20T11:51:28;4.22;;;2.22;;
60851;SDS011;48553;50.766;2.900;2023-07-20T11:54:29;4.82;;;2.00;;
60851;SDS011;48553;50.766;2.900;2023-07-20T11:57:30;4.63;;;2.05;;
60851;SDS011;48553;50.766;2.900;2023-07-20T12:00:31;4.63;;;2.00;;
60851;SDS011;48553;50.766;2.900;2023-07-20T12:03:32;4.57;;;1.88;;
60851;SDS011;48553;50.766;2.900;2023-07-20T12:06:33;3.83;;;1.90;;
60851;SDS011;48553;50.766;2.900;2023-07-20T12:09:33;4.93;;;2.30;;
60851;SDS011;48553;50.766;2.900;2023-07-20T12:12:34;5.32;;;2.10;;
60851;SDS011;48553;50.766;2.900;2023-07-20T12:15:37;3.55;;;1.88;;
60851;SDS011;48553;50.766;2.900;2023-07-20T12:18:37;4.85;;;2.00;;
60851;SDS011;48553;50.766;2.900;2023-07-20T12:21:39;4.00;;;1.95;;
60851;SDS011;48553;50.766;2.900;2023-07-20T12:24:41;4.55;;;2.10;;
60851;SDS011;48553;50.766;2.900;2023-07-20T12:27:41;4.07;;;1.90;;
60851;SDS011;48553;50.766;2.900;2023-07-20T12:30:45;3.05;;;2.00;;
60851;SDS011;48553;50.766;2.900;2023-07-20T12:33:46;3.83;;;1.67;;
60851;SDS011;48553;50.766;2.900;2023-07-20T12:36:47;4.47;;;2.00;;
60851;SDS011;48553;50.766;2.900;2023-07-20T12:39:47;3.80;;;1.90;;
60851;SDS011;48553;50.766;2.900;2023-07-20T12:42:48;4.00;;;2.10;;
60851;SDS011;48553;50.766;2.900;2023-07-20T12:45:48;4.20;;;1.77;;
60851;SDS011;48553;50.766;2.900;2023-07-20T12:48:49;4.63;;;2.15;;
60851;SDS011;48553;50.766;2.900;2023-07-20T12:51:49;8.60;;;2.10;;
60851;SDS011;48553;50.766;2.900;2023-07-20T12:54:49;4.45;;;2.70;;
60851;SDS011;48553;50.766;2.900;2023-07-20T12:57:50;3.80;;;2.35;;
60851;SDS011;48553;50.766;2.900;2023-07-20T13:00:51;4.15;;;3.00;;
60851;SDS011;48553;50.766;2.900;2023-07-20T13:03:51;4.70;;;2.95;;
60851;SDS011;48553;50.766;2.900;2023-07-20T13:06:52;6.05;;;3.00;;
60851;SDS011;48553;50.766;2.900;2023-07-20T13:09:52;5.53;;;3.10;;
60851;SDS011;48553;50.766;2.900;2023-07-20T13:12:53;4.75;;;3.45;;
60851;SDS011;48553;50.766;2.900;2023-07-20T13:15:53;5.80;;;3.65;;
60851;SDS011;48553;50.766;2.900;2023-07-20T13:18:54;5.85;;;3.90;;
60851;SDS011;48553;50.766;2.900;2023-07-20T13:21:54;6.85;;;3.55;;
60851;SDS011;48553;50.766;2.900;2023-07-20T13:24:55;5.88;;;3.78;;
60851;SDS011;48553;50.766;2.900;2023-07-20T13:27:55;4.55;;;3.38;;
60851;SDS011;48553;50.766;2.900;2023-07-20T13:30:56;6.22;;;4.00;;
60851;SDS011;48553;50.766;2.900;2023-07-20T13:33:56;4.35;;;3.08;;
60851;SDS011;48553;50.766;2.900;2023-07-20T13:36:58;4.43;;;3.05;;
60851;SDS011;48553;50.766;2.900;2023-07-20T13:39:59;4.22;;;2.33;;
60851;SDS011;48553;50.766;2.900;2023-07-20T13:43:00;3.50;;;2.65;;
60851;SDS011;48553;50.766;2.900;2023-07-20T13:46:00;3.97;;;2.45;;
60851;SDS011;48553;50.766;2.900;2023-07-20T13:49:00;3.78;;;2.35;;
60851;SDS011;48553;50.766;2.900;2023-07-20T13:52:01;5.72;;;3.85;;
60851;SDS011;48553;50.766;2.900;2023-07-20T13:55:02;3.90;;;2.30;;
60851;SDS011;48553;50.766;2.900;2023-07-20T13:58:03;3.50;;;2.40;;
60851;SDS011;48553;50.766;2.900;2023-07-20T14:01:03;3.38;;;2.25;;
60851;SDS011;48553;50.766;2.900;2023-07-20T14:04:04;4.15;;;3.65;;
60851;SDS011;48553;50.766;2.900;2023-07-20T14:07:04;3.28;;;2.00;;
60851;SDS011;48553;50.766;2.900;2023-07-20T14:10:05;5.97;;;3.90;;
60851;SDS011;48553;50.766;2.900;2023-07-20T14:13:05;4.45;;;2.83;;
60851;SDS011;48553;50.766;2.900;2023-07-20T14:16:06;6.55;;;5.22;;
60851;SDS011;48553;50.766;2.900;2023-07-20T14:19:07;2.17;;;1.75;;
60851;SDS011;48553;50.766;2.900;2023-07-20T14:22:07;2.30;;;1.70;;
60851;SDS011;48553;50.766;2.900;2023-07-20T14:25:08;3.13;;;1.95;;
60851;SDS011;48553;50.766;2.900;2023-07-20T14:28:08;3.08;;;1.60;;
60851;SDS011;48553;50.766;2.900;2023-07-20T14:31:09;2.15;;;1.40;;
60851;SDS011;48553;50.766;2.900;2023-07-20T14:34:09;3.10;;;1.92;;
60851;SDS011;48553;50.766;2.900;2023-07-20T14:37:09;3.22;;;1.90;;
60851;SDS011;48553;50.766;2.900;2023-07-20T14:40:10;2.53;;;1.50;;
60851;SDS011;48553;50.766;2.900;2023-07-20T14:43:11;2.95;;;1.60;;
60851;SDS011;48553;50.766;2.900;2023-07-20T14:46:12;2.60;;;1.52;;
60851;SDS011;48553;50.766;2.900;2023-07-20T14:49:12;2.72;;;1.40;;
60851;SDS011;48553;50.766;2.900;2023-07-20T14:52:12;2.58;;;1.60;;
60851;SDS011;48553;50.766;2.900;2023-07-20T14:55:13;3.00;;;1.50;;
60851;SDS011;48553;50.766;2.900;2023-07-20T14:58:13;2.97;;;1.50;;
60851;SDS011;48553;50.766;2.900;2023-07-20T15:01:14;1.95;;;1.20;;
60851;SDS011;48553;50.766;2.900;2023-07-20T15:04:14;2.45;;;1.60;;
60851;SDS011;48553;50.766;2.900;2023-07-20T15:07:15;2.63;;;1.10;;
60851;SDS011;48553;50.766;2.900;2023-07-20T15:10:18;3.47;;;1.27;;
60851;SDS011;48553;50.766;2.900;2023-07-20T15:13:19;1.80;;;1.00;;
60851;SDS011;48553;50.766;2.900;2023-07-20T15:16:19;2.28;;;1.50;;
60851;SDS011;48553;50.766;2.900;2023-07-20T15:19:19;2.95;;;1.55;;
60851;SDS011;48553;50.766;2.900;2023-07-20T15:22:22;2.13;;;1.35;;
60851;SDS011;48553;50.766;2.900;2023-07-20T15:25:22;2.83;;;1.40;;
60851;SDS011;48553;50.766;2.900;2023-07-20T15:28:23;2.15;;;1.30;;
60851;SDS011;48553;50.766;2.900;2023-07-20T15:31:23;2.65;;;1.30;;
60851;SDS011;48553;50.766;2.900;2023-07-20T15:34:24;2.53;;;1.40;;
60851;SDS011;48553;50.766;2.900;2023-07-20T15:37:24;2.58;;;1.30;;
60851;SDS011;48553;50.766;2.900;2023-07-20T15:40:26;3.00;;;1.52;;
60851;SDS011;48553;50.766;2.900;2023-07-20T15:43:26;2.25;;;1.45;;
60851;SDS011;48553;50.766;2.900;2023-07-20T15:46:42;2.42;;;1.40;;
60851;SDS011;48553;50.766;2.900;2023-07-20T15:49:44;2.05;;;1.33;;
60851;SDS011;48553;50.766;2.900;2023-07-20T15:52:44;3.00;;;1.30;;
60851;SDS011;48553;50.766;2.900;2023-07-20T15:55:45;1.98;;;1.40;;
60851;SDS011;48553;50.766;2.900;2023-07-20T15:58:52;4.25;;;2.10;;
60851;SDS011;48553;50.766;2.900;2023-07-20T16:01:52;3.33;;;1.60;;
60851;SDS011;48553;50.766;2.900;2023-07-20T16:04:53;3.88;;;1.80;;
60851;SDS011;48553;50.766;2.900;2023-07-20T16:07:53;2.28;;;1.50;;
60851;SDS011;48553;50.766;2.900;2023-07-20T16:10:54;3.97;;;2.40;;
60851;SDS011;48553;50.766;2.900;2023-07-20T16:13:57;2.78;;;1.70;;
60851;SDS011;48553;50.766;2.900;2023-07-20T16:16:57;2.22;;;1.50;;
60851;SDS011;48553;50.766;2.900;2023-07-20T16:19:58;4.07;;;1.55;;
60851;SDS011;48553;50.766;2.900;2023-07-20T16:22:58;2.85;;;1.63;;
60851;SDS011;48553;50.766;2.900;2023-07-20T16:25:59;2.95;;;1.70;;
60851;SDS011;48553;50.766;2.900;2023-07-20T16:29:00;2.53;;;1.70;;
60851;SDS011;48553;50.766;2.900;2023-07-20T16:32:01;3.80;;;2.15;;
60851;SDS011;48553;50.766;2.900;2023-07-20T16:35:02;3.40;;;1.90;;
60851;SDS011;48553;50.766;2.900;2023-07-20T16:38:03;2.33;;;1.60;;
60851;SDS011;48553;50.766;2.900;2023-07-20T16:41:05;3.42;;;1.80;;
60851;SDS011;48553;50.766;2.900;2023-07-20T16:44:06;3.22;;;1.98;;
60851;SDS011;48553;50.766;2.900;2023-07-20T16:47:07;3.42;;;2.20;;
60851;SDS011;48553;50.766;2.900;2023-07-20T16:50:08;3.17;;;1.75;;
60851;SDS011;48553;50.766;2.900;2023-07-20T16:53:09;2.60;;;1.50;;
60851;SDS011;48553;50.766;2.900;2023-07-20T16:56:09;2.70;;;1.67;;
60851;SDS011;48553;50.766;2.900;2023-07-20T16:59:11;3.53;;;1.50;;
60851;SDS011;48553;50.766;2.900;2023-07-20T17:02:11;2.65;;;1.70;;
60851;SDS011;48553;50.766;2.900;2023-07-20T17:05:12;3.28;;;1.58;;
60851;SDS011;48553;50.766;2.900;2023-07-20T17:08:12;2.53;;;1.50;;
60851;SDS011;48553;50.766;2.900;2023-07-20T17:11:13;2.70;;;1.80;;
60851;SDS011;48553;50.766;2.900;2023-07-20T17:14:13;2.90;;;1.60;;
60851;SDS011;48553;50.766;2.900;2023-07-20T17:17:14;2.25;;;1.30;;
60851;SDS011;48553;50.766;2.900;2023-07-20T17:20:14;2.75;;;1.30;;
60851;SDS011;48553;50.766;2.900;2023-07-20T17:23:15;2.55;;;1.50;;
60851;SDS011;48553;50.766;2.900;2023-07-20T17:26:16;4.43;;;1.60;;
60851;SDS011;48553;50.766;2.900;2023-07-20T17:29:17;3.28;;;1.60;;
60851;SDS011;48553;50.766;2.900;2023-07-20T17:32:17;2.67;;;1.45;;
60851;SDS011;48553;50.766;2.900;2023-07-20T17:35:18;3.00;;;1.50;;
60851;SDS011;48553;50.766;2.900;2023-07-20T17:38:20;2.58;;;1.67;;
60851;SDS011;48553;50.766;2.900;2023-07-20T17:41:22;2.80;;;1.70;;
60851;SDS011;48553;50.766;2.900;2023-07-20T17:44:22;3.72;;;1.30;;
60851;SDS011;48553;50.766;2.900;2023-07-20T17:47:23;2.90;;;1.98;;
60851;SDS011;48553;50.766;2.900;2023-07-20T17:50:23;2.47;;;1.63;;
60851;SDS011;48553;50.766;2.900;2023-07-20T17:53:25;4.18;;;1.50;;
60851;SDS011;48553;50.766;2.900;2023-07-20T17:56:28;2.50;;;1.90;;
60851;SDS011;48553;50.766;2.900;2023-07-20T17:59:28;2.92;;;2.05;;
60851;SDS011;48553;50.766;2.900;2023-07-20T18:02:29;3.55;;;1.90;;
60851;SDS011;48553;50.766;2.900;2023-07-20T18:05:29;3.30;;;1.80;;
60851;SDS011;48553;50.766;2.900;2023-07-20T18:08:30;3.20;;;2.00;;
60851;SDS011;48553;50.766;2.900;2023-07-20T18:11:30;3.15;;;2.08;;
60851;SDS011;48553;50.766;2.900;2023-07-20T18:14:30;3.42;;;1.88;;
60851;SDS011;48553;50.766;2.900;2023-07-20T18:17:31;4.03;;;2.13;;
60851;SDS011;48553;50.766;2.900;2023-07-20T18:20:33;3.70;;;2.00;;
60851;SDS011;48553;50.766;2.900;2023-07-20T18:23:35;3.50;;;2.03;;
60851;SDS011;48553;50.766;2.900;2023-07-20T18:26:35;4.90;;;1.98;;